Time;durP1;ratioP1;P1;durP2;ratioP2;P2;SDS_P1;SDS_P2;PMS_P1;PMS_P2;Temp;Humidity;BMP_temperature;BMP_pressure;BME280_temperature;BME280_humidity;BME280_pressure;Samples;Min_cycle;Max_cycle;Signal;HPM_P1;HPM_P2
2022/04/08 00:00:49;;;;;;;;;;;;;;;19.54;40.99;99175.09;102487;1331;74636;-81
2022/04/08 00:03:28;;;;;;;;;;;;;;;19.54;40.98;99170.60;102563;1331;62606;-78
2022/04/08 00:06:18;;;;;;;;;;;;;;;19.54;40.95;99171.14;102509;1332;62024;-82
2022/04/08 00:09:07;;;;;;;;;;;;;;;19.54;41.01;99171.54;102496;1332;73051;-84
2022/04/08 00:11:44;;;;;;;;;;;;;;;19.53;40.92;99169.25;102495;1330;75454;-80
2022/04/08 00:14:58;;;;;;;;;;;;;;;19.54;41.02;99171.17;102553;1325;63424;-86
2022/04/08 00:17:41;;;;;;;;;;;;;;;19.54;40.96;99173.88;102698;1328;62171;-81
2022/04/08 00:20:26;;;;;;;;;;;;;;;;;;;;;
2022/04/08 00:23:06;;;;;;;;;;;;;;;19.53;40.93;99183.70;102737;1326;75763;-86
2022/04/08 00:25:54;;;;;;;;;;;;;;;19.53;41.02;99180.49;102758;1326;62108;-82
2022/04/08 00:28:50;;;;;;;;;;;;;;;19.53;41.06;99180.88;102801;1324;62033;-83
2022/04/08 00:31:35;;;;;;;;;;;;;;;19.53;40.98;99179.11;102742;1325;72999;-85
2022/04/08 00:34:14;;;;;;;;;;;;;;;;;;;;;
2022/04/08 00:37:25;;;;;;;;;;;;;;;19.53;40.96;99178.59;103018;1323;62159;-83
2022/04/08 00:40:00;;;;;;;;;;;;;;;19.53;40.97;99176.28;103902;1316;62018;-83
2022/04/08 00:42:43;;;;;;;;;;;;;;;19.52;40.98;99178.96;104137;1316;72755;-84
2022/04/08 00:45:35;;;;;;;;;;;;;;;19.52;40.98;99184.67;104045;1315;75808;-83
2022/04/08 00:48:23;;;;;;;;;;;;;;;;;;;;;
2022/04/08 00:51:17;;;;;;;;;;;;;;;19.52;40.97;99184.67;103173;1322;62205;-88
2022/04/08 00:54:22;;;;;;;;;;;;;;;;;;;;;
2022/04/08 00:56:53;;;;;;;;;;;;;;;19.52;40.99;99178.48;102724;1326;76701;-82
2022/04/08 00:59:48;;;;;;;;;;;;;;;19.52;41.01;99174.55;102749;1325;59414;-83
2022/04/08 01:02:34;;;;;;;;;;;;;;;19.52;40.97;99174.55;102780;1326;61979;-83
2022/04/08 01:05:29;;;;;;;;;;;;;;;19.52;40.94;99170.63;102789;1325;74066;-81
2022/04/08 01:07:58;;;;;;;;;;;;;;;19.52;41.00;99171.70;102735;1326;76136;-82
2022/04/08 01:11:04;;;;;;;;;;;;;;;19.51;40.96;99172.29;102785;1326;62059;-82
2022/04/08 01:14:31;;;;;;;;;;;;;;;19.52;40.92;99183.52;102733;1329;62183;-87
2022/04/08 01:17:15;;;;;;;;;;;;;;;;;;;;;
2022/04/08 01:20:21;;;;;;;;;;;;;;;19.52;40.97;99194.58;102452;1332;78598;-82
2022/04/08 01:23:07;;;;;;;;;;;;;;;19.51;40.90;99198.69;102479;1332;62465;-78
2022/04/08 01:26:18;;;;;;;;;;;;;;;19.52;40.95;99207.40;102684;1326;62206;-84
2022/04/08 01:29:04;;;;;;;;;;;;;;;19.52;40.95;99205.08;102764;1325;73102;-85
2022/04/08 01:32:00;;;;;;;;;;;;;;;;;;;;;
2022/04/08 01:35:06;;;;;;;;;;;;;;;19.51;40.94;99208.91;102582;1329;62018;-85
2022/04/08 01:38:05;;;;;;;;;;;;;;;19.52;40.99;99208.30;102029;1338;62083;-81
2022/04/08 01:41:11;;;;;;;;;;;;;;;19.51;41.03;99201.39;102032;1337;71672;-82
2022/04/08 01:44:08;;;;;;;;;;;;;;;;;;;;;
2022/04/08 01:46:47;;;;;;;;;;;;;;;19.52;40.99;99192.80;102062;1337;62202;-81
2022/04/08 01:50:18;;;;;;;;;;;;;;;19.51;41.06;99193.56;101962;1336;61966;-86
2022/04/08 01:52:59;;;;;;;;;;;;;;;;;;;;;
2022/04/08 01:56:05;;;;;;;;;;;;;;;19.51;40.99;99194.45;102542;1328;73398;-87
2022/04/08 01:59:01;;;;;;;;;;;;;;;19.50;41.00;99199.30;102594;1328;62155;-84
2022/04/08 02:05:16;;;;;;;;;;;;;;;19.50;41.00;99205.75;102320;1332;71660;-81
2022/04/08 02:08:02;;;;;;;;;;;;;;;19.50;40.93;99213.98;101932;1336;76742;-82
2022/04/08 02:10:57;;;;;;;;;;;;;;;19.50;40.96;99210.79;102018;1337;62031;-82
2022/04/08 02:14:03;;;;;;;;;;;;;;;19.50;40.97;99210.76;102674;1328;61904;-79
2022/04/08 02:17:19;;;;;;;;;;;;;;;19.50;41.07;99211.33;102996;1325;74120;-82
2022/04/08 02:20:23;;;;;;;;;;;;;;;;;;;;;
2022/04/08 02:23:20;;;;;;;;;;;;;;;;;;;;;
2022/04/08 02:26:12;;;;;;;;;;;;;;;19.50;41.01;99210.30;102313;1334;62021;-84
2022/04/08 02:28:57;;;;;;;;;;;;;;;19.50;41.04;99209.23;102316;1335;73073;-83
2022/04/08 02:31:43;;;;;;;;;;;;;;;19.49;40.92;99203.73;102335;1335;75664;-89
2022/04/08 02:34:21;;;;;;;;;;;;;;;19.49;41.00;99202.64;102015;1338;62128;-84
2022/04/08 02:36:57;;;;;;;;;;;;;;;;;;;;;
2022/04/08 02:39:56;;;;;;;;;;;;;;;;;;;;;
2022/04/08 02:42:47;;;;;;;;;;;;;;;19.48;41.01;99212.96;101950;1337;75711;-83
2022/04/08 02:45:25;;;;;;;;;;;;;;;;;;;;;
2022/04/08 02:48:01;;;;;;;;;;;;;;;19.47;40.91;99222.96;102517;1331;62091;-83
2022/04/08 02:50:46;;;;;;;;;;;;;;;;;;;;;
2022/04/08 02:53:33;;;;;;;;;;;;;;;19.47;41.05;99221.77;102464;1328;76573;-82
2022/04/08 02:56:08;;;;;;;;;;;;;;;19.47;40.95;99225.70;102761;1325;62194;-82
2022/04/08 02:59:04;;;;;;;;;;;;;;;;;;;;;
2022/04/08 03:01:39;;;;;;;;;;;;;;;19.46;40.91;99238.98;102541;1331;74582;-86
2022/04/08 03:04:25;;;;;;;;;;;;;;;19.45;40.99;99242.42;103233;1322;76317;-85
2022/04/08 03:07:05;;;;;;;;;;;;;;;;;;;;;
2022/04/08 03:09:55;;;;;;;;;;;;;;;;;;;;;
2022/04/08 03:12:25;;;;;;;;;;;;;;;19.45;40.99;99254.09;103517;1317;73129;-84
2022/04/08 03:15:06;;;;;;;;;;;;;;;19.45;40.99;99259.09;104015;1316;76737;-81
2022/04/08 03:17:59;;;;;;;;;;;;;;;19.44;41.01;99269.30;104199;1316;62074;-82
2022/04/08 03:20:50;;;;;;;;;;;;;;;19.44;40.96;99271.96;104217;1316;62011;-82
2022/04/08 03:23:29;;;;;;;;;;;;;;;;;;;;;
2022/04/08 03:26:19;;;;;;;;;;;;;;;19.43;41.01;99271.11;104039;1316;76657;-78
2022/04/08 03:29:00;;;;;;;;;;;;;;;;;;;;;
2022/04/08 03:31:47;;;;;;;;;;;;;;;19.43;41.01;99260.08;103533;1317;61987;-82
2022/04/08 03:34:30;;;;;;;;;;;;;;;19.43;40.92;99259.23;104208;1316;72741;-81
2022/04/08 03:36:59;;;;;;;;;;;;;;;19.42;40.95;99271.27;103883;1316;75721;-78
2022/04/08 03:39:48;;;;;;;;;;;;;;;19.41;40.93;99283.42;104331;1308;61958;-79
2022/04/08 03:42:36;;;;;;;;;;;;;;;19.41;40.99;99282.05;104600;1306;62108;-81
2022/04/08 03:45:16;;;;;;;;;;;;;;;;;;;;;
2022/04/08 03:48:07;;;;;;;;;;;;;;;19.40;40.85;99307.67;104171;1316;75871;-84
2022/04/08 03:50:36;;;;;;;;;;;;;;;19.39;40.86;99304.32;104226;1314;62127;-84
2022/04/08 03:53:24;;;;;;;;;;;;;;;19.38;40.78;99312.08;104247;1314;62157;-86
2022/04/08 03:56:33;;;;;;;;;;;;;;;19.38;40.73;99343.89;104203;1314;74007;-82
2022/04/08 03:59:10;;;;;;;;;;;;;;;19.37;40.77;99345.54;104228;1314;76815;-82
2022/04/08 04:02:01;;;;;;;;;;;;;;;19.36;40.76;99344.89;104213;1314;62021;-84
2022/04/08 04:04:45;;;;;;;;;;;;;;;19.35;40.81;99352.84;104228;1314;61964;-82
2022/04/08 04:07:40;;;;;;;;;;;;;;;19.35;40.73;99354.64;104214;1314;74695;-85
2022/04/08 04:10:20;;;;;;;;;;;;;;;;;;;;;
2022/04/08 04:13:14;;;;;;;;;;;;;;;19.36;40.63;99342.79;103788;1314;62327;-83
2022/04/08 04:15:53;;;;;;;;;;;;;;;19.38;40.62;99345.07;103523;1319;62118;-82
2022/04/08 04:19:01;;;;;;;;;;;;;;;;;;;;;
2022/04/08 04:21:51;;;;;;;;;;;;;;;19.44;40.41;99345.10;103006;1326;76825;-82
2022/04/08 04:24:36;;;;;;;;;;;;;;;19.49;40.47;99354.50;103857;1317;61983;-85
2022/04/08 04:27:04;;;;;;;;;;;;;;;19.53;40.47;99358.46;103863;1317;63191;-83
2022/04/08 04:29:44;;;;;;;;;;;;;;;19.56;40.12;99350.30;103808;1317;73853;-81
2022/04/08 04:32:29;;;;;;;;;;;;;;;19.59;40.14;99354.15;103673;1317;78246;-80
2022/04/08 04:35:23;;;;;;;;;;;;;;;19.63;40.21;99360.42;103745;1317;61852;-82
2022/04/08 04:37:48;;;;;;;;;;;;;;;19.65;40.00;99359.70;103475;1317;61856;-81
2022/04/08 04:40:14;;;;;;;;;;;;;;;19.67;39.85;99361.71;103681;1317;62193;-84
2022/04/08 04:42:46;;;;;;;;;;;;;;;19.68;39.97;99364.48;103804;1316;62105;-81
2022/04/08 04:45:13;;;;;;;;;;;;;;;19.69;39.80;99364.02;103792;1314;62013;-80
2022/04/08 04:47:48;;;;;;;;;;;;;;;19.70;39.70;99358.59;103654;1316;62038;-80
2022/04/08 04:50:14;;;;;;;;;;;;;;;19.71;39.67;99362.59;103688;1317;62710;-80
2022/04/08 04:52:39;;;;;;;;;;;;;;;19.71;39.62;99370.23;104010;1305;62185;-81
2022/04/08 04:55:20;;;;;;;;;;;;;;;19.73;39.49;99389.17;104233;1305;62140;-81
2022/04/08 04:57:46;;;;;;;;;;;;;;;19.75;39.49;99393.27;103753;1303;61979;-80
2022/04/08 05:00:12;;;;;;;;;;;;;;;19.77;39.44;99402.04;103916;1303;62208;-79
2022/04/08 05:02:37;;;;;;;;;;;;;;;19.78;39.38;99410.39;104459;1306;62407;-79
2022/04/08 05:05:03;;;;;;;;;;;;;;;19.77;39.31;99398.49;104465;1305;62192;-79
2022/04/08 05:07:28;;;;;;;;;;;;;;;19.76;39.28;99407.83;104619;1305;61951;-79
2022/04/08 05:09:54;;;;;;;;;;;;;;;19.77;39.34;99413.27;104481;1305;62130;-79
2022/04/08 05:12:19;;;;;;;;;;;;;;;19.78;39.23;99410.14;104229;1305;60276;-80
2022/04/08 05:14:45;;;;;;;;;;;;;;;19.79;39.28;99423.30;104262;1305;62655;-80
2022/04/08 05:17:11;;;;;;;;;;;;;;;19.79;39.06;99417.95;104273;1305;61787;-82
2022/04/08 05:19:37;;;;;;;;;;;;;;;19.79;39.20;99421.48;104379;1304;62072;-80
2022/04/08 05:22:02;;;;;;;;;;;;;;;19.79;39.08;99428.81;104299;1305;62105;-80
2022/04/08 05:24:28;;;;;;;;;;;;;;;19.79;39.04;99441.52;104419;1305;73879;-81
2022/04/08 05:26:56;;;;;;;;;;;;;;;19.78;38.99;99446.02;104442;1304;75318;-82
2022/04/08 05:29:22;;;;;;;;;;;;;;;19.78;38.99;99450.16;104244;1305;60364;-80
2022/04/08 05:31:47;;;;;;;;;;;;;;;19.79;38.90;99447.91;104262;1305;62089;-81
2022/04/08 05:34:13;;;;;;;;;;;;;;;19.81;38.75;99443.34;104317;1305;61392;-81
2022/04/08 05:36:38;;;;;;;;;;;;;;;19.83;38.85;99451.41;104399;1305;62224;-81
2022/04/08 05:39:04;;;;;;;;;;;;;;;19.85;38.72;99456.23;104339;1305;75648;-81
2022/04/08 05:41:30;;;;;;;;;;;;;;;19.86;38.86;99450.95;104218;1305;62139;-81
2022/04/08 05:43:55;;;;;;;;;;;;;;;19.88;38.79;99454.90;104263;1305;64502;-79
2022/04/08 05:46:21;;;;;;;;;;;;;;;19.90;38.73;99457.89;104231;1306;60431;-78
2022/04/08 05:48:46;;;;;;;;;;;;;;;19.91;38.58;99458.13;104271;1305;62179;-81
2022/04/08 05:51:12;;;;;;;;;;;;;;;19.94;38.55;99463.23;104134;1305;76606;-81
2022/04/08 05:53:37;;;;;;;;;;;;;;;19.97;38.46;99473.39;104273;1306;62314;-80
2022/04/08 05:56:03;;;;;;;;;;;;;;;19.98;38.52;99485.95;104479;1307;60560;-78
2022/04/08 05:58:28;;;;;;;;;;;;;;;19.98;38.54;99484.67;104577;1305;62111;-80
2022/04/08 06:01:18;;;;;;;;;;;;;;;19.96;38.52;99482.76;104775;1304;62091;-81
2022/04/08 06:03:43;;;;;;;;;;;;;;;19.96;38.52;99491.66;103842;1311;75517;-79
2022/04/08 06:06:08;;;;;;;;;;;;;;;19.97;38.62;99496.55;103706;1311;62176;-79
2022/04/08 06:08:34;;;;;;;;;;;;;;;20.00;38.69;99494.16;103864;1311;60773;-79
2022/04/08 06:10:59;;;;;;;;;;;;;;;20.05;38.80;99490.69;103902;1311;62217;-79
2022/04/08 06:13:27;;;;;;;;;;;;;;;20.10;38.84;99499.71;103744;1311;62176;-79
2022/04/08 06:15:53;;;;;;;;;;;;;;;20.15;38.90;99495.36;103791;1311;75907;-78
2022/04/08 06:18:19;;;;;;;;;;;;;;;20.21;38.79;99499.34;103851;1311;61466;-80
2022/04/08 06:20:45;;;;;;;;;;;;;;;20.25;38.81;99500.87;103746;1311;62204;-79
2022/04/08 06:23:10;;;;;;;;;;;;;;;20.30;38.89;99502.61;103837;1311;62296;-80
2022/04/08 06:25:36;;;;;;;;;;;;;;;20.35;38.90;99513.65;103836;1311;62357;-80
2022/04/08 06:28:03;;;;;;;;;;;;;;;20.38;38.73;99512.77;103842;1311;62136;-83
2022/04/08 06:30:29;;;;;;;;;;;;;;;20.42;38.73;99510.35;104242;1311;60489;-82
2022/04/08 06:32:55;;;;;;;;;;;;;;;20.46;38.86;99519.13;104890;1311;60175;-80
2022/04/08 06:35:22;;;;;;;;;;;;;;;20.49;38.83;99528.48;104742;1310;60467;-80
2022/04/08 06:37:47;;;;;;;;;;;;;;;20.53;38.80;99525.42;104679;1311;61265;-79
2022/04/08 06:40:13;;;;;;;;;;;;;;;20.57;38.81;99531.15;104133;1311;60841;-80
2022/04/08 06:42:38;;;;;;;;;;;;;;;20.61;38.72;99536.55;104522;1305;62257;-79
2022/04/08 06:45:04;;;;;;;;;;;;;;;20.64;38.89;99529.48;104401;1305;62105;-82
2022/04/08 06:47:30;;;;;;;;;;;;;;;20.67;38.79;99534.57;103942;1305;830437;-82
2022/04/08 06:49:55;;;;;;;;;;;;;;;20.68;38.72;99553.95;104721;1304;62168;-82
2022/04/08 06:52:20;;;;;;;;;;;;;;;20.69;38.70;99558.19;104732;1303;60423;-82
2022/04/08 06:54:46;;;;;;;;;;;;;;;20.69;38.74;99561.39;104347;1305;62130;-81
2022/04/08 06:57:11;;;;;;;;;;;;;;;20.67;38.82;99566.72;104559;1304;62066;-80
2022/04/08 06:59:39;;;;;;;;;;;;;;;20.63;38.92;99572.46;104600;1305;70672;-81
2022/04/08 07:02:04;;;;;;;;;;;;;;;20.60;38.89;99579.34;104508;1306;76735;-80
2022/04/08 07:04:30;;;;;;;;;;;;;;;20.58;39.02;99584.13;104573;1305;60599;-81
2022/04/08 07:06:56;;;;;;;;;;;;;;;20.58;38.89;99588.45;104675;1305;60331;-81
2022/04/08 07:09:23;;;;;;;;;;;;;;;20.57;38.92;99589.37;104763;1305;62040;-81
2022/04/08 07:11:48;;;;;;;;;;;;;;;20.57;38.94;99588.84;104366;1303;63664;-80
2022/04/08 07:14:14;;;;;;;;;;;;;;;20.57;38.93;99599.23;104775;1303;62191;-80
2022/04/08 07:16:41;;;;;;;;;;;;;;;20.53;38.82;99604.60;104678;1303;60423;-79
2022/04/08 07:19:06;;;;;;;;;;;;;;;20.54;38.88;99604.71;104949;1303;61750;-80
2022/04/08 07:21:32;;;;;;;;;;;;;;;20.56;38.73;99613.45;104765;1304;60616;-79
2022/04/08 07:23:57;;;;;;;;;;;;;;;20.61;38.77;99607.31;104620;1305;60870;-79
2022/04/08 07:26:23;;;;;;;;;;;;;;;20.66;38.91;99604.20;104697;1303;60323;-79
2022/04/08 07:28:48;;;;;;;;;;;;;;;20.70;38.75;99602.24;104866;1305;60646;-79
2022/04/08 07:31:14;;;;;;;;;;;;;;;20.75;38.81;99603.98;104310;1305;62111;-78
2022/04/08 07:33:39;;;;;;;;;;;;;;;20.79;38.83;99607.55;104251;1304;62164;-79
2022/04/08 07:36:05;;;;;;;;;;;;;;;20.84;39.02;99609.46;104228;1305;62104;-78
2022/04/08 07:38:31;;;;;;;;;;;;;;;20.86;38.87;99618.52;104340;1304;62296;-79
2022/04/08 07:40:57;;;;;;;;;;;;;;;20.89;38.85;99620.63;104366;1303;61953;-78
2022/04/08 07:43:24;;;;;;;;;;;;;;;20.92;38.97;99629.83;104391;1303;62130;-79
2022/04/08 07:45:49;;;;;;;;;;;;;;;20.92;39.05;99634.25;104198;1305;60785;-80
2022/04/08 07:48:15;;;;;;;;;;;;;;;20.94;39.14;99640.40;104415;1304;62117;-80
2022/04/08 07:50:41;;;;;;;;;;;;;;;20.96;39.07;99633.27;104406;1305;62107;-80
2022/04/08 07:53:07;;;;;;;;;;;;;;;20.97;39.36;99635.33;104293;1305;61191;-78
2022/04/08 07:55:32;;;;;;;;;;;;;;;20.98;39.43;99631.09;104367;1305;60098;-81
2022/04/08 07:58:01;;;;;;;;;;;;;;;20.96;39.63;99633.61;104223;1305;75766;-80
2022/04/08 08:00:27;;;;;;;;;;;;;;;20.90;39.44;99638.73;104188;1305;62158;-79
2022/04/08 08:02:53;;;;;;;;;;;;;;;20.86;39.42;99647.54;103904;1303;62123;-80
2022/04/08 08:05:20;;;;;;;;;;;;;;;20.85;39.37;99650.52;103874;1305;61444;-79
2022/04/08 08:07:47;;;;;;;;;;;;;;;20.82;39.33;99647.15;105207;1305;60386;-80
2022/04/08 08:10:13;;;;;;;;;;;;;;;20.79;39.64;99639.16;104887;1305;60886;-80
2022/04/08 08:12:39;;;;;;;;;;;;;;;20.79;39.61;99634.20;105115;1305;60369;-81
2022/04/08 08:15:05;;;;;;;;;;;;;;;20.77;39.58;99631.11;105062;1307;60159;-81
2022/04/08 08:17:30;;;;;;;;;;;;;;;20.78;39.91;99623.17;105092;1305;60286;-80
2022/04/08 08:19:57;;;;;;;;;;;;;;;20.81;40.07;99618.48;105231;1305;60327;-80
2022/04/08 08:22:22;;;;;;;;;;;;;;;20.85;40.16;99622.59;105251;1303;60426;-81
2022/04/08 08:24:48;;;;;;;;;;;;;;;20.86;40.38;99625.16;105141;1306;60411;-80
2022/04/08 08:27:14;;;;;;;;;;;;;;;20.87;40.21;99625.77;104536;1307;62112;-81
2022/04/08 08:29:40;;;;;;;;;;;;;;;20.88;40.46;99629.48;104540;1303;62229;-81
2022/04/08 08:32:05;;;;;;;;;;;;;;;20.88;40.23;99633.24;104561;1304;61964;-80
2022/04/08 08:34:31;;;;;;;;;;;;;;;20.89;40.25;99640.62;104462;1307;61307;-80
2022/04/08 08:36:59;;;;;;;;;;;;;;;20.91;40.35;99640.27;104695;1305;60881;-80
2022/04/08 08:39:25;;;;;;;;;;;;;;;20.93;40.36;99636.55;104451;1305;73898;-82
2022/04/08 08:41:52;;;;;;;;;;;;;;;20.94;40.08;99638.77;104430;1305;75403;-80
2022/04/08 08:44:19;;;;;;;;;;;;;;;20.96;39.96;99638.77;104717;1305;62122;-80
2022/04/08 08:46:44;;;;;;;;;;;;;;;20.97;39.89;99640.70;104537;1304;62080;-80
2022/04/08 08:49:11;;;;;;;;;;;;;;;20.95;39.95;99647.08;104623;1305;62067;-81
2022/04/08 08:51:37;;;;;;;;;;;;;;;20.96;39.62;99647.05;104434;1305;62148;-80
2022/04/08 08:54:02;;;;;;;;;;;;;;;20.97;39.74;99648.14;104721;1304;60553;-79
2022/04/08 08:56:28;;;;;;;;;;;;;;;21.01;39.75;99649.29;104326;1305;60794;-80
2022/04/08 08:58:53;;;;;;;;;;;;;;;21.05;40.07;99649.06;103857;1305;60797;-79
2022/04/08 09:01:19;;;;;;;;;;;;;;;21.06;40.06;99649.84;104302;1305;72733;-79
2022/04/08 09:03:44;;;;;;;;;;;;;;;21.05;40.28;99649.98;104357;1305;62202;-79
2022/04/08 09:06:10;;;;;;;;;;;;;;;21.05;39.99;99649.56;104448;1303;59478;-80
2022/04/08 09:08:36;;;;;;;;;;;;;;;21.07;40.20;99648.54;104200;1304;62252;-78
2022/04/08 09:11:02;;;;;;;;;;;;;;;21.08;40.29;99649.15;105306;1303;60316;-79
2022/04/08 09:13:28;;;;;;;;;;;;;;;21.09;40.27;99650.30;105225;1304;60031;-79
2022/04/08 09:15:54;;;;;;;;;;;;;;;21.11;40.15;99653.37;105344;1302;75519;-79
2022/04/08 09:18:20;;;;;;;;;;;;;;;21.13;40.21;99663.16;105268;1305;60386;-80
2022/04/08 09:20:46;;;;;;;;;;;;;;;21.16;40.17;99662.21;105332;1305;60861;-79
2022/04/08 09:23:12;;;;;;;;;;;;;;;21.17;40.33;99660.70;105379;1303;60660;-80
2022/04/08 09:25:39;;;;;;;;;;;;;;;21.16;40.22;99667.55;105298;1305;59992;-80
2022/04/08 09:28:17;;;;;;;;;;;;;;;21.16;40.40;99661.56;105229;1305;60064;-80
2022/04/08 09:30:49;;;;;;;;;;;;;;;21.15;40.39;99657.14;104985;1305;61055;-81
2022/04/08 09:33:16;;;;;;;;;;;;;;;21.15;40.24;99656.39;105266;1304;73808;-80
2022/04/08 09:35:43;;;;;;;;;;;;;;;21.15;40.31;99655.69;105152;1305;76515;-80
2022/04/08 09:38:08;;;;;;;;;;;;;;;21.15;40.46;99658.52;105221;1305;60231;-80
2022/04/08 09:40:35;;;;;;;;;;;;;;;21.15;40.33;99650.86;105288;1305;60459;-80
2022/04/08 09:43:00;;;;;;;;;;;;;;;21.15;40.41;99650.55;105361;1302;60492;-80
2022/04/08 09:45:27;;;;;;;;;;;;;;;21.14;40.65;99643.40;105205;1305;60339;-80
2022/04/08 09:47:52;;;;;;;;;;;;;;;21.13;40.40;99643.54;105246;1305;60518;-80
2022/04/08 09:50:19;;;;;;;;;;;;;;;21.12;40.68;99640.39;105379;1303;60506;-80
2022/04/08 09:52:45;;;;;;;;;;;;;;;21.12;40.56;99632.58;105104;1303;60121;-80
2022/04/08 09:55:10;;;;;;;;;;;;;;;21.09;40.64;99636.86;105111;1305;60577;-81
2022/04/08 09:57:37;;;;;;;;;;;;;;;21.09;40.64;99640.13;105084;1305;75539;-81
2022/04/08 10:00:02;;;;;;;;;;;;;;;21.07;40.54;99638.84;105418;1302;61123;-81
2022/04/08 10:02:28;;;;;;;;;;;;;;;21.03;40.40;99642.99;105154;1305;60437;-81
2022/04/08 10:04:55;;;;;;;;;;;;;;;20.99;40.38;99649.11;105151;1303;60365;-81
2022/04/08 10:07:20;;;;;;;;;;;;;;;20.96;40.52;99653.66;105358;1302;60402;-81
2022/04/08 10:09:48;;;;;;;;;;;;;;;20.93;40.44;99654.75;105290;1305;60587;-81
2022/04/08 10:12:16;;;;;;;;;;;;;;;20.90;40.42;99652.11;105254;1305;60162;-81
2022/04/08 10:15:00;;;;;;;;;;;;;;;20.88;40.40;99650.09;105212;1303;60333;-81
2022/04/08 10:17:25;;;;;;;;;;;;;;;20.87;40.40;99651.56;105311;1305;76070;-81
2022/04/08 10:19:51;;;;;;;;;;;;;;;20.86;40.44;99655.04;105356;1304;60477;-81
2022/04/08 10:22:17;;;;;;;;;;;;;;;20.85;40.32;99649.95;105376;1306;60136;-80
2022/04/08 10:24:50;;;;;;;;;;;;;;;20.84;40.45;99652.90;104557;1305;60093;-81
2022/04/08 10:27:16;;;;;;;;;;;;;;;20.83;40.33;99655.48;104560;1305;76532;-80
2022/04/08 10:29:43;;;;;;;;;;;;;;;20.82;40.31;99654.83;104502;1305;62125;-80
2022/04/08 10:32:13;;;;;;;;;;;;;;;20.80;40.23;99652.69;104479;1305;62043;-82
2022/04/08 10:34:38;;;;;;;;;;;;;;;20.78;40.34;99652.69;104525;1305;72965;-79
2022/04/08 10:37:15;;;;;;;;;;;;;;;20.77;40.12;99652.43;104641;1306;62198;-80
2022/04/08 10:39:42;;;;;;;;;;;;;;;20.75;40.03;99663.10;104359;1305;61164;-80
2022/04/08 10:42:08;;;;;;;;;;;;;;;20.74;39.82;99659.67;104286;1305;62285;-80
2022/04/08 10:44:37;;;;;;;;;;;;;;;20.72;39.72;99657.10;104251;1305;73456;-80
2022/04/08 10:47:03;;;;;;;;;;;;;;;20.70;39.93;99652.44;105157;1305;62028;-80
2022/04/08 10:49:30;;;;;;;;;;;;;;;20.70;39.82;99657.48;104961;1305;62067;-79
2022/04/08 10:51:55;;;;;;;;;;;;;;;20.70;39.74;99659.96;104486;1307;60291;-80
2022/04/08 10:54:21;;;;;;;;;;;;;;;20.70;39.78;99663.95;104826;1303;62047;-79
2022/04/08 10:56:57;;;;;;;;;;;;;;;20.70;39.78;99658.93;104547;1305;62088;-81
2022/04/08 10:59:26;;;;;;;;;;;;;;;20.71;39.61;99658.81;104544;1305;61916;-80
2022/04/08 11:01:55;;;;;;;;;;;;;;;20.73;39.71;99659.34;104662;1306;62139;-79
2022/04/08 11:04:20;;;;;;;;;;;;;;;20.76;39.71;99665.38;104255;1307;73370;-79
2022/04/08 11:07:09;;;;;;;;;;;;;;;20.76;39.79;99662.65;104479;1303;62153;-80
2022/04/08 11:09:35;;;;;;;;;;;;;;;20.75;39.75;99660.10;104084;1311;60567;-80
2022/04/08 11:12:00;;;;;;;;;;;;;;;20.74;39.53;99664.30;103983;1310;62214;-80
2022/04/08 11:14:31;;;;;;;;;;;;;;;20.73;39.77;99662.43;103969;1311;62138;-80
2022/04/08 11:16:57;;;;;;;;;;;;;;;20.72;39.83;99665.59;103905;1311;76654;-79
2022/04/08 11:19:23;;;;;;;;;;;;;;;20.71;39.81;99672.59;103928;1311;62323;-80
2022/04/08 11:21:53;;;;;;;;;;;;;;;20.71;39.45;99680.33;103903;1311;62322;-80
2022/04/08 11:24:19;;;;;;;;;;;;;;;20.69;39.66;99682.80;104020;1310;72700;-80
2022/04/08 11:26:48;;;;;;;;;;;;;;;20.68;39.58;99674.30;103908;1311;62068;-80
2022/04/08 11:29:22;;;;;;;;;;;;;;;20.67;39.78;99670.59;103941;1311;63212;-83
2022/04/08 11:31:49;;;;;;;;;;;;;;;20.66;39.75;99673.39;104169;1311;62147;-80
2022/04/08 11:34:17;;;;;;;;;;;;;;;20.65;39.52;99674.56;104140;1310;73737;-81
2022/04/08 11:36:43;;;;;;;;;;;;;;;20.64;39.71;99679.81;104186;1311;76662;-79
2022/04/08 11:39:09;;;;;;;;;;;;;;;20.63;39.66;99674.16;104083;1310;62207;-81
2022/04/08 11:41:35;;;;;;;;;;;;;;;20.63;39.73;99676.84;104146;1311;62081;-81
2022/04/08 11:44:07;;;;;;;;;;;;;;;20.62;39.72;99672.33;104124;1311;74009;-81
2022/04/08 11:46:33;;;;;;;;;;;;;;;20.61;39.49;99669.36;104020;1305;75572;-81
2022/04/08 11:48:59;;;;;;;;;;;;;;;20.59;39.53;99669.63;104152;1305;62170;-80
2022/04/08 11:51:24;;;;;;;;;;;;;;;20.60;39.73;99671.40;104408;1305;60217;-80
2022/04/08 11:53:53;;;;;;;;;;;;;;;20.59;39.50;99671.64;104312;1306;61052;-80
2022/04/08 11:56:25;;;;;;;;;;;;;;;20.58;39.42;99667.59;104299;1305;61005;-81
2022/04/08 11:59:05;;;;;;;;;;;;;;;20.58;39.47;99666.54;105586;1304;60177;-80
2022/04/08 12:01:32;;;;;;;;;;;;;;;20.58;39.58;99664.37;105433;1305;60219;-80
2022/04/08 12:03:59;;;;;;;;;;;;;;;20.58;39.48;99673.66;105015;1305;74019;-81
2022/04/08 12:06:37;;;;;;;;;;;;;;;20.59;39.39;99670.79;105519;1305;76887;-80
2022/04/08 12:09:03;;;;;;;;;;;;;;;20.59;39.28;99677.23;105466;1305;60123;-80
2022/04/08 12:11:29;;;;;;;;;;;;;;;20.58;39.19;99684.91;105591;1305;60572;-80
2022/04/08 12:13:58;;;;;;;;;;;;;;;20.58;39.16;99680.46;105305;1306;59957;-80
2022/04/08 12:16:23;;;;;;;;;;;;;;;20.58;39.01;99679.95;105481;1305;76544;-80
2022/04/08 12:18:51;;;;;;;;;;;;;;;20.59;39.08;99679.54;105286;1305;60216;-80
2022/04/08 12:21:21;;;;;;;;;;;;;;;20.59;39.05;99679.14;105528;1305;60410;-80
2022/04/08 12:23:47;;;;;;;;;;;;;;;20.60;39.04;99681.57;105068;1305;72711;-80
2022/04/08 12:26:12;;;;;;;;;;;;;;;20.61;38.81;99680.59;104406;1305;61948;-80
2022/04/08 12:28:41;;;;;;;;;;;;;;;20.62;38.89;99686.80;104446;1308;62128;-83
2022/04/08 12:31:13;;;;;;;;;;;;;;;20.61;38.89;99689.34;104386;1307;62007;-81
2022/04/08 12:33:48;;;;;;;;;;;;;;;20.60;38.71;99682.44;104496;1306;73738;-81
2022/04/08 12:36:24;;;;;;;;;;;;;;;20.60;38.65;99678.91;104352;1307;76604;-81
2022/04/08 12:38:54;;;;;;;;;;;;;;;20.59;38.41;99679.34;104432;1306;61965;-80
2022/04/08 12:41:25;;;;;;;;;;;;;;;20.58;38.38;99674.73;104424;1305;62132;-80
2022/04/08 12:43:54;;;;;;;;;;;;;;;20.57;38.32;99673.39;104430;1305;71646;-82
2022/04/08 12:46:39;;;;;;;;;;;;;;;20.57;38.35;99674.83;104600;1305;75523;-81
2022/04/08 12:49:33;;;;;;;;;;;;;;;20.56;38.38;99670.80;104600;1304;61989;-81
2022/04/08 12:51:59;;;;;;;;;;;;;;;20.56;38.25;99676.55;104706;1305;62222;-80
2022/04/08 12:54:36;;;;;;;;;;;;;;;20.56;38.25;99679.99;104662;1305;62036;-80
2022/04/08 12:57:09;;;;;;;;;;;;;;;20.54;38.08;99679.38;104308;1305;76578;-80
2022/04/08 12:59:39;;;;;;;;;;;;;;;20.54;37.94;99674.94;104150;1310;62043;-80
2022/04/08 13:02:15;;;;;;;;;;;;;;;20.54;37.95;99675.86;104209;1310;61985;-81
2022/04/08 13:05:00;;;;;;;;;;;;;;;20.53;37.90;99677.69;104112;1312;74481;-80
2022/04/08 13:07:25;;;;;;;;;;;;;;;20.53;37.94;99680.39;104151;1308;76004;-80
2022/04/08 13:09:54;;;;;;;;;;;;;;;20.53;38.01;99677.36;104087;1312;62166;-80
2022/04/08 13:12:51;;;;;;;;;;;;;;;20.52;37.97;99672.95;104207;1310;62046;-81
2022/04/08 13:15:26;;;;;;;;;;;;;;;20.52;37.84;99673.18;104224;1310;72899;-84
2022/04/08 13:18:06;;;;;;;;;;;;;;;20.52;37.70;99672.41;104196;1310;76746;-81
2022/04/08 13:20:38;;;;;;;;;;;;;;;20.52;37.62;99672.23;104306;1311;62380;-80
2022/04/08 13:23:37;;;;;;;;;;;;;;;20.52;37.77;99669.74;104314;1310;62094;-82
2022/04/08 13:26:20;;;;;;;;;;;;;;;20.52;37.60;99669.20;104334;1308;72658;-83
2022/04/08 13:29:10;;;;;;;;;;;;;;;20.52;37.61;99659.89;104351;1310;75535;-87
2022/04/08 13:32:03;;;;;;;;;;;;;;;20.52;37.49;99652.09;104561;1307;62085;-83
2022/04/08 13:34:48;;;;;;;;;;;;;;;20.52;37.50;99660.83;104846;1305;62201;-85
2022/04/08 13:37:28;;;;;;;;;;;;;;;20.52;37.52;99660.48;104663;1305;74356;-85
2022/04/08 13:40:28;;;;;;;;;;;;;;;20.53;37.44;99656.64;104720;1306;75661;-86
2022/04/08 13:42:59;;;;;;;;;;;;;;;20.56;37.63;99663.15;104599;1306;60604;-85
2022/04/08 13:48:24;;;;;;;;;;;;;;;;;;;;;